sensor_id;sensor_type;location;lat;lon;timestamp;temperature;humidity
77305;DHT22;66364;52.622;7.746;2023-08-17T00:00:02;17.50;99.90
77305;DHT22;66364;52.622;7.746;2023-08-17T00:02:03;17.50;99.90
77305;DHT22;66364;52.622;7.746;2023-08-17T00:04:05;17.50;99.90
77305;DHT22;66364;52.622;7.746;2023-08-17T00:06:07;17.50;99.90
77305;DHT22;66364;52.622;7.746;2023-08-17T00:08:08;17.50;99.90
77305;DHT22;66364;52.622;7.746;2023-08-17T00:10:09;17.50;99.90
77305;DHT22;66364;52.622;7.746;2023-08-17T00:12:10;17.50;99.90
77305;DHT22;66364;52.622;7.746;2023-08-17T00:14:11;17.60;99.90
77305;DHT22;66364;52.622;7.746;2023-08-17T00:16:12;17.50;99.90
77305;DHT22;66364;52.622;7.746;2023-08-17T00:18:14;17.50;99.90
77305;DHT22;66364;52.622;7.746;2023-08-17T00:20:15;17.60;99.90
77305;DHT22;66364;52.622;7.746;2023-08-17T00:22:16;17.40;99.90
77305;DHT22;66364;52.622;7.746;2023-08-17T00:24:18;17.40;99.90
77305;DHT22;66364;52.622;7.746;2023-08-17T00:26:19;17.50;99.90
77305;DHT22;66364;52.622;7.746;2023-08-17T00:28:20;17.70;99.90
77305;DHT22;66364;52.622;7.746;2023-08-17T00:30:22;17.90;99.90
77305;DHT22;66364;52.622;7.746;2023-08-17T00:32:23;17.60;99.90
77305;DHT22;66364;52.622;7.746;2023-08-17T00:34:25;17.30;99.90
77305;DHT22;66364;52.622;7.746;2023-08-17T00:36:26;17.50;99.90
77305;DHT22;66364;52.622;7.746;2023-08-17T00:38:27;17.40;99.90
77305;DHT22;66364;52.622;7.746;2023-08-17T00:40:28;17.30;99.90
77305;DHT22;66364;52.622;7.746;2023-08-17T00:42:29;17.60;99.90
77305;DHT22;66364;52.622;7.746;2023-08-17T00:44:30;17.30;99.90
77305;DHT22;66364;52.622;7.746;2023-08-17T00:46:32;17.40;99.90
77305;DHT22;66364;52.622;7.746;2023-08-17T00:48:34;17.30;99.90
77305;DHT22;66364;52.622;7.746;2023-08-17T00:50:36;17.30;99.90
77305;DHT22;66364;52.622;7.746;2023-08-17T00:52:38;17.50;99.90
77305;DHT22;66364;52.622;7.746;2023-08-17T00:54:40;17.10;99.90
77305;DHT22;66364;52.622;7.746;2023-08-17T00:56:41;17.20;99.90
77305;DHT22;66364;52.622;7.746;2023-08-17T00:58:43;17.20;99.90
77305;DHT22;66364;52.622;7.746;2023-08-17T01:00:44;17.40;99.90
77305;DHT22;66364;52.622;7.746;2023-08-17T01:02:46;17.20;99.90
77305;DHT22;66364;52.622;7.746;2023-08-17T01:04:48;17.10;99.90
77305;DHT22;66364;52.622;7.746;2023-08-17T01:06:50;17.20;99.90
77305;DHT22;66364;52.622;7.746;2023-08-17T01:08:51;17.20;99.90
77305;DHT22;66364;52.622;7.746;2023-08-17T01:13:44;17.20;99.90
77305;DHT22;66364;52.622;7.746;2023-08-17T01:15:49;17.20;99.90
77305;DHT22;66364;52.622;7.746;2023-08-17T01:19:55;17.20;99.90
77305;DHT22;66364;52.622;7.746;2023-08-17T01:22:04;17.40;99.90
77305;DHT22;66364;52.622;7.746;2023-08-17T01:24:07;17.10;99.90
77305;DHT22;66364;52.622;7.746;2023-08-17T01:26:09;17.30;99.90
77305;DHT22;66364;52.622;7.746;2023-08-17T01:28:10;17.30;99.90
77305;DHT22;66364;52.622;7.746;2023-08-17T01:30:13;17.40;99.90
77305;DHT22;66364;52.622;7.746;2023-08-17T01:32:29;17.30;99.90
77305;DHT22;66364;52.622;7.746;2023-08-17T01:34:33;17.20;99.90
77305;DHT22;66364;52.622;7.746;2023-08-17T01:36:42;17.20;99.90
77305;DHT22;66364;52.622;7.746;2023-08-17T01:38:43;17.40;99.90
77305;DHT22;66364;52.622;7.746;2023-08-17T01:40:48;17.40;99.90
77305;DHT22;66364;52.622;7.746;2023-08-17T01:42:50;17.40;99.90
77305;DHT22;66364;52.622;7.746;2023-08-17T01:44:52;17.50;99.90
77305;DHT22;66364;52.622;7.746;2023-08-17T01:46:53;17.30;99.90
77305;DHT22;66364;52.622;7.746;2023-08-17T01:48:54;17.40;99.90
77305;DHT22;66364;52.622;7.746;2023-08-17T01:50:58;17.20;99.90
77305;DHT22;66364;52.622;7.746;2023-08-17T01:52:59;17.20;99.90
77305;DHT22;66364;52.622;7.746;2023-08-17T01:55:01;17.20;99.90
77305;DHT22;66364;52.622;7.746;2023-08-17T01:57:02;17.10;99.90
77305;DHT22;66364;52.622;7.746;2023-08-17T01:59:03;17.30;99.90
77305;DHT22;66364;52.622;7.746;2023-08-17T02:01:05;16.90;99.90
77305;DHT22;66364;52.622;7.746;2023-08-17T02:03:06;16.90;99.90
77305;DHT22;66364;52.622;7.746;2023-08-17T02:05:08;17.10;99.90
77305;DHT22;66364;52.622;7.746;2023-08-17T02:07:09;17.10;99.90
77305;DHT22;66364;52.622;7.746;2023-08-17T02:09:10;17.00;99.90
77305;DHT22;66364;52.622;7.746;2023-08-17T02:11:11;16.80;99.90
77305;DHT22;66364;52.622;7.746;2023-08-17T02:13:18;16.80;99.90
77305;DHT22;66364;52.622;7.746;2023-08-17T02:15:20;17.10;99.90
77305;DHT22;66364;52.622;7.746;2023-08-17T02:17:21;16.90;99.90
77305;DHT22;66364;52.622;7.746;2023-08-17T02:19:21;16.90;99.90
77305;DHT22;66364;52.622;7.746;2023-08-17T02:21:22;16.90;99.90
77305;DHT22;66364;52.622;7.746;2023-08-17T02:23:24;17.10;99.90
77305;DHT22;66364;52.622;7.746;2023-08-17T02:25:25;17.10;99.90
77305;DHT22;66364;52.622;7.746;2023-08-17T02:27:27;17.10;99.90
77305;DHT22;66364;52.622;7.746;2023-08-17T02:29:29;17.00;99.90
77305;DHT22;66364;52.622;7.746;2023-08-17T02:31:30;17.00;99.90
77305;DHT22;66364;52.622;7.746;2023-08-17T02:33:31;17.00;99.90
77305;DHT22;66364;52.622;7.746;2023-08-17T02:35:32;16.80;99.90
77305;DHT22;66364;52.622;7.746;2023-08-17T02:37:34;17.00;99.90
77305;DHT22;66364;52.622;7.746;2023-08-17T02:39:34;16.80;99.90
77305;DHT22;66364;52.622;7.746;2023-08-17T02:41:35;17.00;99.90
77305;DHT22;66364;52.622;7.746;2023-08-17T02:43:36;17.30;99.90
77305;DHT22;66364;52.622;7.746;2023-08-17T02:45:37;16.90;99.90
77305;DHT22;66364;52.622;7.746;2023-08-17T02:47:39;17.00;99.90
77305;DHT22;66364;52.622;7.746;2023-08-17T02:49:41;17.00;99.90
77305;DHT22;66364;52.622;7.746;2023-08-17T02:51:42;16.90;99.90
77305;DHT22;66364;52.622;7.746;2023-08-17T02:53:42;17.00;99.90
77305;DHT22;66364;52.622;7.746;2023-08-17T02:55:43;16.80;99.90
77305;DHT22;66364;52.622;7.746;2023-08-17T02:57:44;16.70;99.90
77305;DHT22;66364;52.622;7.746;2023-08-17T02:59:46;16.70;99.90
77305;DHT22;66364;52.622;7.746;2023-08-17T03:01:47;16.70;99.90
77305;DHT22;66364;52.622;7.746;2023-08-17T03:03:48;16.50;99.90
77305;DHT22;66364;52.622;7.746;2023-08-17T03:05:49;16.70;99.90
77305;DHT22;66364;52.622;7.746;2023-08-17T03:07:50;16.30;99.90
77305;DHT22;66364;52.622;7.746;2023-08-17T03:10:01;16.70;99.90
77305;DHT22;66364;52.622;7.746;2023-08-17T03:12:02;16.70;99.90
77305;DHT22;66364;52.622;7.746;2023-08-17T03:14:03;16.70;99.90
77305;DHT22;66364;52.622;7.746;2023-08-17T03:16:04;16.70;99.90
77305;DHT22;66364;52.622;7.746;2023-08-17T03:18:06;16.60;99.90
77305;DHT22;66364;52.622;7.746;2023-08-17T03:20:07;16.70;99.90
77305;DHT22;66364;52.622;7.746;2023-08-17T03:22:08;16.70;99.90
77305;DHT22;66364;52.622;7.746;2023-08-17T03:24:09;16.70;99.90
77305;DHT22;66364;52.622;7.746;2023-08-17T03:26:10;16.70;99.90
77305;DHT22;66364;52.622;7.746;2023-08-17T03:28:11;16.80;99.90
77305;DHT22;66364;52.622;7.746;2023-08-17T03:30:12;16.60;99.90
77305;DHT22;66364;52.622;7.746;2023-08-17T03:32:14;16.60;99.90
77305;DHT22;66364;52.622;7.746;2023-08-17T03:34:15;16.70;99.90
77305;DHT22;66364;52.622;7.746;2023-08-17T03:36:41;16.70;99.90
77305;DHT22;66364;52.622;7.746;2023-08-17T03:38:42;16.70;99.90
77305;DHT22;66364;52.622;7.746;2023-08-17T03:40:43;16.70;99.90
77305;DHT22;66364;52.622;7.746;2023-08-17T03:42:44;16.90;99.90
77305;DHT22;66364;52.622;7.746;2023-08-17T03:44:45;16.80;99.90
77305;DHT22;66364;52.622;7.746;2023-08-17T03:46:47;17.10;99.90
77305;DHT22;66364;52.622;7.746;2023-08-17T03:48:47;16.80;99.90
77305;DHT22;66364;52.622;7.746;2023-08-17T03:50:52;16.90;99.90
77305;DHT22;66364;52.622;7.746;2023-08-17T03:52:53;16.90;99.90
77305;DHT22;66364;52.622;7.746;2023-08-17T03:54:54;16.80;99.90
77305;DHT22;66364;52.622;7.746;2023-08-17T03:56:55;16.80;99.90
77305;DHT22;66364;52.622;7.746;2023-08-17T03:58:56;16.80;99.90
77305;DHT22;66364;52.622;7.746;2023-08-17T04:00:57;16.70;99.90
77305;DHT22;66364;52.622;7.746;2023-08-17T04:02:59;16.90;99.90
77305;DHT22;66364;52.622;7.746;2023-08-17T04:05:01;16.80;99.90
77305;DHT22;66364;52.622;7.746;2023-08-17T04:07:01;16.90;99.90
77305;DHT22;66364;52.622;7.746;2023-08-17T04:09:04;16.80;99.90
77305;DHT22;66364;52.622;7.746;2023-08-17T04:11:07;17.00;99.90
77305;DHT22;66364;52.622;7.746;2023-08-17T04:13:09;16.90;99.90
77305;DHT22;66364;52.622;7.746;2023-08-17T04:15:11;17.00;99.90
77305;DHT22;66364;52.622;7.746;2023-08-17T04:17:12;17.00;99.90
77305;DHT22;66364;52.622;7.746;2023-08-17T04:19:13;16.90;99.90
77305;DHT22;66364;52.622;7.746;2023-08-17T04:21:14;16.90;99.90
77305;DHT22;66364;52.622;7.746;2023-08-17T04:23:16;17.00;99.90
77305;DHT22;66364;52.622;7.746;2023-08-17T04:25:17;16.90;99.90
77305;DHT22;66364;52.622;7.746;2023-08-17T04:27:19;17.00;99.90
77305;DHT22;66364;52.622;7.746;2023-08-17T04:29:20;16.90;99.90
77305;DHT22;66364;52.622;7.746;2023-08-17T04:31:22;16.90;99.90
77305;DHT22;66364;52.622;7.746;2023-08-17T04:33:23;16.90;99.90
77305;DHT22;66364;52.622;7.746;2023-08-17T04:35:26;16.90;99.90
77305;DHT22;66364;52.622;7.746;2023-08-17T04:37:29;17.00;99.90
77305;DHT22;66364;52.622;7.746;2023-08-17T04:39:32;17.00;99.90
77305;DHT22;66364;52.622;7.746;2023-08-17T04:41:33;17.00;99.90
77305;DHT22;66364;52.622;7.746;2023-08-17T04:43:34;17.00;99.90
77305;DHT22;66364;52.622;7.746;2023-08-17T04:45:35;17.00;99.90
77305;DHT22;66364;52.622;7.746;2023-08-17T04:47:36;17.00;99.90
77305;DHT22;66364;52.622;7.746;2023-08-17T04:49:37;17.00;99.90
77305;DHT22;66364;52.622;7.746;2023-08-17T04:51:40;17.10;99.90
77305;DHT22;66364;52.622;7.746;2023-08-17T04:53:40;17.00;99.90
77305;DHT22;66364;52.622;7.746;2023-08-17T04:55:42;17.40;99.90
77305;DHT22;66364;52.622;7.746;2023-08-17T04:57:43;17.00;99.90
77305;DHT22;66364;52.622;7.746;2023-08-17T04:59:44;16.90;99.90
77305;DHT22;66364;52.622;7.746;2023-08-17T05:01:46;16.90;99.90
77305;DHT22;66364;52.622;7.746;2023-08-17T05:03:47;16.90;99.90
77305;DHT22;66364;52.622;7.746;2023-08-17T05:05:48;16.90;99.90
77305;DHT22;66364;52.622;7.746;2023-08-17T05:07:49;16.90;99.90
77305;DHT22;66364;52.622;7.746;2023-08-17T05:09:55;17.00;99.90
77305;DHT22;66364;52.622;7.746;2023-08-17T05:11:57;17.00;99.90
77305;DHT22;66364;52.622;7.746;2023-08-17T05:14:00;17.00;99.90
77305;DHT22;66364;52.622;7.746;2023-08-17T05:16:12;17.00;99.90
77305;DHT22;66364;52.622;7.746;2023-08-17T05:18:14;16.90;99.90
77305;DHT22;66364;52.622;7.746;2023-08-17T05:20:15;16.80;99.90
77305;DHT22;66364;52.622;7.746;2023-08-17T05:22:18;17.00;99.90
77305;DHT22;66364;52.622;7.746;2023-08-17T05:24:19;17.00;99.90
77305;DHT22;66364;52.622;7.746;2023-08-17T05:26:22;17.00;99.90
77305;DHT22;66364;52.622;7.746;2023-08-17T05:28:23;16.90;99.90
77305;DHT22;66364;52.622;7.746;2023-08-17T05:30:23;16.80;99.90
77305;DHT22;66364;52.622;7.746;2023-08-17T05:32:25;17.00;99.90
77305;DHT22;66364;52.622;7.746;2023-08-17T05:34:25;16.80;99.90
77305;DHT22;66364;52.622;7.746;2023-08-17T05:36:26;16.70;99.90
77305;DHT22;66364;52.622;7.746;2023-08-17T05:38:27;16.80;99.90
77305;DHT22;66364;52.622;7.746;2023-08-17T05:40:30;16.70;99.90
77305;DHT22;66364;52.622;7.746;2023-08-17T05:42:31;16.90;99.90
77305;DHT22;66364;52.622;7.746;2023-08-17T05:44:32;16.80;99.90
77305;DHT22;66364;52.622;7.746;2023-08-17T05:46:34;16.70;99.90
77305;DHT22;66364;52.622;7.746;2023-08-17T05:48:34;16.70;99.90
77305;DHT22;66364;52.622;7.746;2023-08-17T05:50:35;17.00;99.90
77305;DHT22;66364;52.622;7.746;2023-08-17T05:52:36;16.80;99.90
77305;DHT22;66364;52.622;7.746;2023-08-17T05:54:37;16.80;99.90
77305;DHT22;66364;52.622;7.746;2023-08-17T05:56:39;16.80;99.90
77305;DHT22;66364;52.622;7.746;2023-08-17T05:58:41;16.90;99.90
77305;DHT22;66364;52.622;7.746;2023-08-17T06:00:41;16.70;99.90
77305;DHT22;66364;52.622;7.746;2023-08-17T06:02:42;16.90;99.90
77305;DHT22;66364;52.622;7.746;2023-08-17T06:04:43;16.90;99.90
77305;DHT22;66364;52.622;7.746;2023-08-17T06:06:45;16.90;99.90
77305;DHT22;66364;52.622;7.746;2023-08-17T06:08:46;16.90;99.90
77305;DHT22;66364;52.622;7.746;2023-08-17T06:10:47;16.90;99.90
77305;DHT22;66364;52.622;7.746;2023-08-17T06:12:48;16.90;99.90
77305;DHT22;66364;52.622;7.746;2023-08-17T06:14:50;16.90;99.90
77305;DHT22;66364;52.622;7.746;2023-08-17T06:16:51;16.90;99.90
77305;DHT22;66364;52.622;7.746;2023-08-17T06:18:52;16.90;99.90
77305;DHT22;66364;52.622;7.746;2023-08-17T06:20:53;17.00;99.90
77305;DHT22;66364;52.622;7.746;2023-08-17T06:22:54;16.70;99.90
77305;DHT22;66364;52.622;7.746;2023-08-17T06:24:55;16.90;99.90
77305;DHT22;66364;52.622;7.746;2023-08-17T06:26:55;16.90;99.90
77305;DHT22;66364;52.622;7.746;2023-08-17T06:28:56;16.90;99.90
77305;DHT22;66364;52.622;7.746;2023-08-17T06:30:58;16.60;99.90
77305;DHT22;66364;52.622;7.746;2023-08-17T06:32:59;16.70;99.90
77305;DHT22;66364;52.622;7.746;2023-08-17T06:35:01;16.80;99.90
77305;DHT22;66364;52.622;7.746;2023-08-17T06:37:03;16.80;99.90
77305;DHT22;66364;52.622;7.746;2023-08-17T06:39:05;16.80;99.90
77305;DHT22;66364;52.622;7.746;2023-08-17T06:41:06;16.70;99.90
77305;DHT22;66364;52.622;7.746;2023-08-17T06:43:07;16.70;99.90
77305;DHT22;66364;52.622;7.746;2023-08-17T06:45:09;16.70;99.90
77305;DHT22;66364;52.622;7.746;2023-08-17T06:47:10;16.70;99.90
77305;DHT22;66364;52.622;7.746;2023-08-17T06:49:11;16.70;99.90
77305;DHT22;66364;52.622;7.746;2023-08-17T06:51:12;16.90;99.90
77305;DHT22;66364;52.622;7.746;2023-08-17T06:53:13;16.80;99.90
77305;DHT22;66364;52.622;7.746;2023-08-17T06:55:14;16.70;99.90
77305;DHT22;66364;52.622;7.746;2023-08-17T06:57:15;16.60;99.90
77305;DHT22;66364;52.622;7.746;2023-08-17T06:59:16;16.60;99.90
77305;DHT22;66364;52.622;7.746;2023-08-17T07:01:17;16.60;99.90
77305;DHT22;66364;52.622;7.746;2023-08-17T07:03:18;16.40;99.90
77305;DHT22;66364;52.622;7.746;2023-08-17T07:05:19;16.70;99.90
77305;DHT22;66364;52.622;7.746;2023-08-17T07:07:20;16.70;99.90
77305;DHT22;66364;52.622;7.746;2023-08-17T07:09:21;17.00;99.90
77305;DHT22;66364;52.622;7.746;2023-08-17T07:11:22;16.70;99.90
77305;DHT22;66364;52.622;7.746;2023-08-17T07:13:24;16.70;99.90
77305;DHT22;66364;52.622;7.746;2023-08-17T07:15:24;16.70;99.90
77305;DHT22;66364;52.622;7.746;2023-08-17T07:17:25;16.80;99.90
77305;DHT22;66364;52.622;7.746;2023-08-17T07:19:27;16.70;99.90
77305;DHT22;66364;52.622;7.746;2023-08-17T07:21:27;16.70;99.90
77305;DHT22;66364;52.622;7.746;2023-08-17T07:23:29;16.60;99.90
77305;DHT22;66364;52.622;7.746;2023-08-17T07:25:30;16.70;99.90
77305;DHT22;66364;52.622;7.746;2023-08-17T07:27:31;16.60;99.90
77305;DHT22;66364;52.622;7.746;2023-08-17T07:29:32;16.60;99.90
77305;DHT22;66364;52.622;7.746;2023-08-17T07:31:34;16.60;99.90
77305;DHT22;66364;52.622;7.746;2023-08-17T07:33:35;16.50;99.90
77305;DHT22;66364;52.622;7.746;2023-08-17T07:35:36;16.50;99.90
77305;DHT22;66364;52.622;7.746;2023-08-17T07:37:37;16.50;99.90
77305;DHT22;66364;52.622;7.746;2023-08-17T07:39:38;16.40;99.90
77305;DHT22;66364;52.622;7.746;2023-08-17T07:41:40;16.70;99.90
77305;DHT22;66364;52.622;7.746;2023-08-17T07:43:40;16.50;99.90
77305;DHT22;66364;52.622;7.746;2023-08-17T07:45:41;16.50;99.90
77305;DHT22;66364;52.622;7.746;2023-08-17T07:47:42;16.40;99.90
77305;DHT22;66364;52.622;7.746;2023-08-17T07:49:44;16.50;99.90
77305;DHT22;66364;52.622;7.746;2023-08-17T07:51:45;16.60;99.90
77305;DHT22;66364;52.622;7.746;2023-08-17T07:53:47;16.50;99.90
77305;DHT22;66364;52.622;7.746;2023-08-17T07:55:48;16.70;99.90
77305;DHT22;66364;52.622;7.746;2023-08-17T07:57:49;16.50;99.90
77305;DHT22;66364;52.622;7.746;2023-08-17T07:59:50;16.80;99.90
77305;DHT22;66364;52.622;7.746;2023-08-17T08:01:51;16.60;99.90
77305;DHT22;66364;52.622;7.746;2023-08-17T08:03:52;16.60;99.90
77305;DHT22;66364;52.622;7.746;2023-08-17T08:05:53;16.70;99.90
77305;DHT22;66364;52.622;7.746;2023-08-17T08:07:54;16.70;99.90
77305;DHT22;66364;52.622;7.746;2023-08-17T08:09:56;16.80;99.90
77305;DHT22;66364;52.622;7.746;2023-08-17T08:11:57;16.70;99.90
77305;DHT22;66364;52.622;7.746;2023-08-17T08:13:58;17.00;99.90
77305;DHT22;66364;52.622;7.746;2023-08-17T08:15:59;16.70;99.90
77305;DHT22;66364;52.622;7.746;2023-08-17T08:18:00;16.90;99.90
77305;DHT22;66364;52.622;7.746;2023-08-17T08:20:01;16.80;99.90
77305;DHT22;66364;52.622;7.746;2023-08-17T08:22:02;16.70;99.90
77305;DHT22;66364;52.622;7.746;2023-08-17T08:24:04;16.80;99.90
77305;DHT22;66364;52.622;7.746;2023-08-17T08:26:06;16.90;99.90
77305;DHT22;66364;52.622;7.746;2023-08-17T08:28:07;16.70;99.90
77305;DHT22;66364;52.622;7.746;2023-08-17T08:30:09;16.90;99.90
77305;DHT22;66364;52.622;7.746;2023-08-17T08:32:10;16.90;99.90
77305;DHT22;66364;52.622;7.746;2023-08-17T08:34:11;16.80;99.90
77305;DHT22;66364;52.622;7.746;2023-08-17T08:36:12;16.90;99.90
77305;DHT22;66364;52.622;7.746;2023-08-17T08:38:15;16.90;99.90
77305;DHT22;66364;52.622;7.746;2023-08-17T08:40:16;16.80;99.90
77305;DHT22;66364;52.622;7.746;2023-08-17T08:42:19;16.60;99.90
77305;DHT22;66364;52.622;7.746;2023-08-17T08:44:20;16.80;99.90
77305;DHT22;66364;52.622;7.746;2023-08-17T08:46:22;16.70;99.90
77305;DHT22;66364;52.622;7.746;2023-08-17T08:48:26;16.70;99.90
77305;DHT22;66364;52.622;7.746;2023-08-17T08:50:31;16.80;99.90
77305;DHT22;66364;52.622;7.746;2023-08-17T08:52:34;16.90;99.90
77305;DHT22;66364;52.622;7.746;2023-08-17T08:54:35;16.90;99.90
77305;DHT22;66364;52.622;7.746;2023-08-17T08:56:38;17.00;99.90
77305;DHT22;66364;52.622;7.746;2023-08-17T08:58:42;17.10;99.90
77305;DHT22;66364;52.622;7.746;2023-08-17T09:00:47;17.10;99.90
77305;DHT22;66364;52.622;7.746;2023-08-17T09:02:50;17.20;99.90
77305;DHT22;66364;52.622;7.746;2023-08-17T09:04:52;17.20;99.90
77305;DHT22;66364;52.622;7.746;2023-08-17T09:06:53;17.40;99.90
77305;DHT22;66364;52.622;7.746;2023-08-17T09:08:57;17.40;99.90
77305;DHT22;66364;52.622;7.746;2023-08-17T09:10:58;17.50;99.90
77305;DHT22;66364;52.622;7.746;2023-08-17T09:13:00;17.40;99.90
77305;DHT22;66364;52.622;7.746;2023-08-17T09:15:01;17.40;99.90
77305;DHT22;66364;52.622;7.746;2023-08-17T09:17:02;17.30;99.90
77305;DHT22;66364;52.622;7.746;2023-08-17T09:19:04;17.50;99.90
77305;DHT22;66364;52.622;7.746;2023-08-17T09:21:06;17.60;99.90
77305;DHT22;66364;52.622;7.746;2023-08-17T09:23:12;17.50;99.90
77305;DHT22;66364;52.622;7.746;2023-08-17T09:25:21;17.50;99.90
77305;DHT22;66364;52.622;7.746;2023-08-17T09:27:20;17.60;99.90
77305;DHT22;66364;52.622;7.746;2023-08-17T09:29:21;17.60;99.90
77305;DHT22;66364;52.622;7.746;2023-08-17T09:31:25;17.60;99.90
77305;DHT22;66364;52.622;7.746;2023-08-17T09:33:28;17.60;99.90
77305;DHT22;66364;52.622;7.746;2023-08-17T09:35:31;17.60;99.90
77305;DHT22;66364;52.622;7.746;2023-08-17T09:37:33;17.70;99.90
77305;DHT22;66364;52.622;7.746;2023-08-17T09:39:34;17.70;99.90
77305;DHT22;66364;52.622;7.746;2023-08-17T09:41:43;17.80;99.90
77305;DHT22;66364;52.622;7.746;2023-08-17T09:43:46;17.70;99.90
77305;DHT22;66364;52.622;7.746;2023-08-17T09:45:48;17.80;99.90
77305;DHT22;66364;52.622;7.746;2023-08-17T09:47:49;17.90;99.90
77305;DHT22;66364;52.622;7.746;2023-08-17T09:49:54;17.80;99.90
77305;DHT22;66364;52.622;7.746;2023-08-17T09:51:59;17.90;99.90
77305;DHT22;66364;52.622;7.746;2023-08-17T09:54:00;18.00;99.90
77305;DHT22;66364;52.622;7.746;2023-08-17T09:56:01;18.00;99.90
77305;DHT22;66364;52.622;7.746;2023-08-17T09:58:02;18.00;99.90
77305;DHT22;66364;52.622;7.746;2023-08-17T10:00:05;18.00;99.90
77305;DHT22;66364;52.622;7.746;2023-08-17T10:02:18;18.00;99.90
77305;DHT22;66364;52.622;7.746;2023-08-17T10:04:12;18.10;99.90
77305;DHT22;66364;52.622;7.746;2023-08-17T10:06:17;18.30;99.90
77305;DHT22;66364;52.622;7.746;2023-08-17T10:08:20;18.20;99.90
77305;DHT22;66364;52.622;7.746;2023-08-17T10:10:25;18.20;99.90
77305;DHT22;66364;52.622;7.746;2023-08-17T10:12:27;18.20;99.90
77305;DHT22;66364;52.622;7.746;2023-08-17T10:14:29;18.30;99.90
77305;DHT22;66364;52.622;7.746;2023-08-17T10:16:36;18.10;99.90
77305;DHT22;66364;52.622;7.746;2023-08-17T10:18:54;18.30;99.90
77305;DHT22;66364;52.622;7.746;2023-08-17T10:21:00;18.20;99.90
77305;DHT22;66364;52.622;7.746;2023-08-17T10:25:07;18.20;99.90
77305;DHT22;66364;52.622;7.746;2023-08-17T10:27:09;18.10;99.90
77305;DHT22;66364;52.622;7.746;2023-08-17T10:29:11;18.30;99.90
77305;DHT22;66364;52.622;7.746;2023-08-17T10:31:12;18.30;99.90
77305;DHT22;66364;52.622;7.746;2023-08-17T10:33:15;18.30;99.90
77305;DHT22;66364;52.622;7.746;2023-08-17T10:35:17;18.20;99.90
77305;DHT22;66364;52.622;7.746;2023-08-17T10:37:20;18.30;99.90
77305;DHT22;66364;52.622;7.746;2023-08-17T10:39:25;18.50;99.90
77305;DHT22;66364;52.622;7.746;2023-08-17T10:41:26;18.70;99.90
77305;DHT22;66364;52.622;7.746;2023-08-17T10:43:32;18.80;99.90
77305;DHT22;66364;52.622;7.746;2023-08-17T10:45:35;18.90;99.90
77305;DHT22;66364;52.622;7.746;2023-08-17T10:47:36;18.90;99.90
77305;DHT22;66364;52.622;7.746;2023-08-17T10:49:37;19.10;99.90
77305;DHT22;66364;52.622;7.746;2023-08-17T10:51:38;19.20;99.90
77305;DHT22;66364;52.622;7.746;2023-08-17T10:53:42;19.20;99.90
77305;DHT22;66364;52.622;7.746;2023-08-17T10:55:47;19.20;99.90
77305;DHT22;66364;52.622;7.746;2023-08-17T10:57:50;19.20;99.90
77305;DHT22;66364;52.622;7.746;2023-08-17T11:02:23;19.20;99.90
77305;DHT22;66364;52.622;7.746;2023-08-17T11:04:25;19.50;99.90
77305;DHT22;66364;52.622;7.746;2023-08-17T11:06:25;19.50;99.90
77305;DHT22;66364;52.622;7.746;2023-08-17T11:08:38;19.60;99.90
77305;DHT22;66364;52.622;7.746;2023-08-17T11:10:39;20.00;99.90
77305;DHT22;66364;52.622;7.746;2023-08-17T11:12:41;19.80;99.90
77305;DHT22;66364;52.622;7.746;2023-08-17T11:14:44;19.80;99.90
77305;DHT22;66364;52.622;7.746;2023-08-17T11:16:49;19.90;99.90
77305;DHT22;66364;52.622;7.746;2023-08-17T11:18:51;20.00;99.90
77305;DHT22;66364;52.622;7.746;2023-08-17T11:20:53;20.00;99.90
77305;DHT22;66364;52.622;7.746;2023-08-17T11:22:55;19.90;99.90
77305;DHT22;66364;52.622;7.746;2023-08-17T11:24:56;19.90;99.90
77305;DHT22;66364;52.622;7.746;2023-08-17T11:26:58;19.90;99.90
77305;DHT22;66364;52.622;7.746;2023-08-17T11:29:00;19.80;99.90
77305;DHT22;66364;52.622;7.746;2023-08-17T11:31:03;19.90;99.90
77305;DHT22;66364;52.622;7.746;2023-08-17T11:33:06;19.80;99.90
77305;DHT22;66364;52.622;7.746;2023-08-17T11:35:08;19.60;99.90
77305;DHT22;66364;52.622;7.746;2023-08-17T11:37:11;19.60;99.90
77305;DHT22;66364;52.622;7.746;2023-08-17T11:39:12;19.40;99.90
77305;DHT22;66364;52.622;7.746;2023-08-17T11:41:14;19.40;99.90
77305;DHT22;66364;52.622;7.746;2023-08-17T11:43:16;19.50;99.90
77305;DHT22;66364;52.622;7.746;2023-08-17T11:45:18;19.60;99.90
77305;DHT22;66364;52.622;7.746;2023-08-17T11:47:19;19.40;99.90
77305;DHT22;66364;52.622;7.746;2023-08-17T11:49:21;19.70;99.90
77305;DHT22;66364;52.622;7.746;2023-08-17T11:51:29;19.70;99.90
77305;DHT22;66364;52.622;7.746;2023-08-17T11:53:35;19.90;99.90
77305;DHT22;66364;52.622;7.746;2023-08-17T11:55:40;19.90;99.90
77305;DHT22;66364;52.622;7.746;2023-08-17T11:57:41;19.80;99.90
77305;DHT22;66364;52.622;7.746;2023-08-17T11:59:42;19.80;99.90
77305;DHT22;66364;52.622;7.746;2023-08-17T12:01:44;20.10;99.90
77305;DHT22;66364;52.622;7.746;2023-08-17T12:03:45;20.00;99.90
77305;DHT22;66364;52.622;7.746;2023-08-17T12:05:50;20.10;99.90
77305;DHT22;66364;52.622;7.746;2023-08-17T12:07:52;20.40;99.90
77305;DHT22;66364;52.622;7.746;2023-08-17T12:09:55;20.20;99.90
77305;DHT22;66364;52.622;7.746;2023-08-17T12:11:59;20.30;99.90
77305;DHT22;66364;52.622;7.746;2023-08-17T12:14:08;20.30;99.90
77305;DHT22;66364;52.622;7.746;2023-08-17T12:16:06;20.40;99.90
77305;DHT22;66364;52.622;7.746;2023-08-17T12:18:07;20.30;99.90
77305;DHT22;66364;52.622;7.746;2023-08-17T12:20:08;20.30;99.90
77305;DHT22;66364;52.622;7.746;2023-08-17T12:22:10;20.30;99.90
77305;DHT22;66364;52.622;7.746;2023-08-17T12:24:11;20.20;99.90
77305;DHT22;66364;52.622;7.746;2023-08-17T12:26:23;20.40;99.90
77305;DHT22;66364;52.622;7.746;2023-08-17T12:28:16;20.40;99.90
77305;DHT22;66364;52.622;7.746;2023-08-17T12:30:31;20.40;99.90
77305;DHT22;66364;52.622;7.746;2023-08-17T12:32:32;20.40;99.90
77305;DHT22;66364;52.622;7.746;2023-08-17T12:34:39;20.30;99.90
77305;DHT22;66364;52.622;7.746;2023-08-17T12:36:43;20.20;99.90
77305;DHT22;66364;52.622;7.746;2023-08-17T12:38:44;20.30;99.90
77305;DHT22;66364;52.622;7.746;2023-08-17T12:40:45;20.00;99.90
77305;DHT22;66364;52.622;7.746;2023-08-17T12:42:48;20.20;99.90
77305;DHT22;66364;52.622;7.746;2023-08-17T12:44:49;20.20;99.90
77305;DHT22;66364;52.622;7.746;2023-08-17T12:46:50;20.30;99.90
77305;DHT22;66364;52.622;7.746;2023-08-17T12:48:51;20.30;99.90
77305;DHT22;66364;52.622;7.746;2023-08-17T12:50:51;20.50;99.90
77305;DHT22;66364;52.622;7.746;2023-08-17T12:52:52;20.20;99.90
77305;DHT22;66364;52.622;7.746;2023-08-17T12:54:53;20.10;99.90
77305;DHT22;66364;52.622;7.746;2023-08-17T12:56:54;20.10;99.90
77305;DHT22;66364;52.622;7.746;2023-08-17T12:58:55;20.10;99.90